createdAt,value
2023-02-09T00:02:55.942Z,37.37
2023-02-09T00:07:58.079Z,37.34
2023-02-09T00:13:18.746Z,37.71
2023-02-09T00:18:22.061Z,38.00
2023-02-09T00:23:25.111Z,37.78
2023-02-09T00:28:27.824Z,37.54
2023-02-09T00:33:30.059Z,37.48
2023-02-09T00:38:32.366Z,37.27
2023-02-09T00:43:35.217Z,38.04
2023-02-09T00:48:37.480Z,37.94
2023-02-09T00:53:39.637Z,37.28
2023-02-09T00:58:41.793Z,37.90
2023-02-09T01:03:43.988Z,37.72
2023-02-09T01:08:46.189Z,38.07
2023-02-09T01:13:48.303Z,37.83
2023-02-09T01:18:50.572Z,38.03
2023-02-09T01:23:52.809Z,37.99
2023-02-09T01:28:55.347Z,38.06
2023-02-09T01:33:59.899Z,37.49
2023-02-09T01:39:04.111Z,38.02
2023-02-09T01:44:11.946Z,38.08
2023-02-09T01:49:17.821Z,37.95
2023-02-09T01:54:25.110Z,37.75
2023-02-09T01:59:27.944Z,37.54
2023-02-09T02:04:31.128Z,36.98
2023-02-09T02:09:33.319Z,37.03
2023-02-09T02:14:39.822Z,35.99
2023-02-09T02:20:09.255Z,35.78
2023-02-09T02:25:23.220Z,35.68
2023-02-09T02:30:25.366Z,35.87
2023-02-09T02:36:04.574Z,35.66
2023-02-09T02:41:15.486Z,35.66
2023-02-09T02:46:33.341Z,35.90
2023-02-09T02:51:43.741Z,35.96
2023-02-09T02:56:52.352Z,36.46
2023-02-09T03:02:04.083Z,36.80
2023-02-09T03:07:10.001Z,37.66
2023-02-09T03:12:30.204Z,38.59
2023-02-09T03:17:48.670Z,38.35
2023-02-09T03:22:58.576Z,38.77
2023-02-09T03:28:20.220Z,38.79
2023-02-09T03:33:26.902Z,39.08
2023-02-09T03:38:29.261Z,39.25
2023-02-09T03:43:51.599Z,39.11
2023-02-09T03:48:53.645Z,39.36
2023-02-09T03:53:55.886Z,38.98
2023-02-09T03:58:58.001Z,39.17
2023-02-09T04:04:02.309Z,39.09
2023-02-09T04:09:06.593Z,38.87
2023-02-09T04:14:10.010Z,39.21
2023-02-09T04:19:12.752Z,38.97
2023-02-09T04:24:15.198Z,38.60
2023-02-09T04:29:17.440Z,38.54
2023-02-09T04:34:21.558Z,38.70
2023-02-09T04:39:23.710Z,38.70
2023-02-09T04:44:25.841Z,39.04
2023-02-09T04:49:28.056Z,38.64
2023-02-09T04:54:30.244Z,38.42
2023-02-09T04:59:35.285Z,38.36
2023-02-09T05:04:37.591Z,38.01
2023-02-09T05:09:39.812Z,38.31
2023-02-09T05:14:41.980Z,38.44
2023-02-09T05:19:44.138Z,38.17
2023-02-09T05:24:46.306Z,38.06
2023-02-09T05:29:48.489Z,37.90
2023-02-09T05:34:50.760Z,37.85
2023-02-09T05:39:53.275Z,37.58
2023-02-09T05:44:55.408Z,37.73
2023-02-09T05:49:57.592Z,38.23
2023-02-09T05:54:59.856Z,38.42
2023-02-09T06:00:02.441Z,38.62
2023-02-09T06:05:05.850Z,38.43
2023-02-09T06:10:08.268Z,38.76
2023-02-09T06:15:11.206Z,39.52
2023-02-09T06:20:13.349Z,40.36
2023-02-09T06:25:15.565Z,40.43
2023-02-09T06:30:17.860Z,41.11
2023-02-09T06:35:20.054Z,41.11
2023-02-09T06:40:22.213Z,41.48
2023-02-09T06:45:24.382Z,42.40
2023-02-09T06:50:26.626Z,42.94
2023-02-09T06:55:29.159Z,44.00
2023-02-09T07:00:32.230Z,43.07
2023-02-09T07:05:34.397Z,42.87
2023-02-09T07:10:36.664Z,42.28
2023-02-09T07:15:39.358Z,42.22
2023-02-09T07:20:44.547Z,42.28
2023-02-09T07:25:46.891Z,41.92
2023-02-09T07:30:53.555Z,41.91
2023-02-09T07:35:55.717Z,41.63
2023-02-09T07:41:02.192Z,41.26
2023-02-09T07:46:06.745Z,40.96
2023-02-09T07:51:14.423Z,40.66
2023-02-09T07:56:16.664Z,40.91
2023-02-09T08:01:19.222Z,40.37
2023-02-09T08:06:42.398Z,40.09
2023-02-09T08:11:56.549Z,39.43
2023-02-09T08:17:21.137Z,38.77
2023-02-09T08:22:25.163Z,38.05
2023-02-09T08:27:27.725Z,38.99
2023-02-09T08:32:29.971Z,38.97
2023-02-09T08:37:32.184Z,38.86
2023-02-09T08:42:34.322Z,38.99
2023-02-09T08:47:36.772Z,38.23
2023-02-09T08:52:39.117Z,38.73
2023-02-09T08:57:44.489Z,38.17
2023-02-09T09:02:46.900Z,37.77
2023-02-09T09:07:49.047Z,36.64
2023-02-09T09:12:52.199Z,36.47
2023-02-09T09:17:54.280Z,36.22
2023-02-09T09:22:59.686Z,36.00
2023-02-09T09:28:02.235Z,37.10
2023-02-09T09:33:06.360Z,36.77
2023-02-09T09:38:09.382Z,36.95
2023-02-09T09:43:33.093Z,37.11
2023-02-09T09:48:48.332Z,37.33
2023-02-09T09:53:53.819Z,36.69
2023-02-09T09:58:56.502Z,36.26
2023-02-09T10:04:07.753Z,38.65
2023-02-09T10:09:23.791Z,41.51
2023-02-09T10:14:25.950Z,44.51
2023-02-09T10:19:29.476Z,44.76
2023-02-09T10:24:33.804Z,46.17
2023-02-09T10:29:36.585Z,46.67
2023-02-09T10:34:38.690Z,45.85
2023-02-09T10:39:41.129Z,48.24
2023-02-09T10:44:50.999Z,48.51
2023-02-09T10:50:02.160Z,49.00
2023-02-09T10:55:18.148Z,47.83
2023-02-09T11:00:20.258Z,47.71
2023-02-09T11:05:22.284Z,47.50
2023-02-09T11:10:26.474Z,48.13
2023-02-09T11:15:36.247Z,50.46
2023-02-09T11:20:51.560Z,47.86
2023-02-09T11:26:08.096Z,46.89
2023-02-09T11:31:48.204Z,46.71
2023-02-09T11:37:16.768Z,47.32
2023-02-09T11:42:44.834Z,46.47
2023-02-09T11:48:14.776Z,47.39
2023-02-09T11:53:37.118Z,47.59
2023-02-09T11:58:47.082Z,47.55
2023-02-09T12:04:13.905Z,49.28
2023-02-09T12:09:40.248Z,50.41
2023-02-09T12:15:03.995Z,51.46
2023-02-09T12:20:20.644Z,50.03
2023-02-09T12:25:34.167Z,50.88
2023-02-09T12:30:42.511Z,51.07
2023-02-09T12:35:57.915Z,53.32
2023-02-09T12:41:06.385Z,53.14
2023-02-09T12:46:20.334Z,53.68
2023-02-09T12:51:56.481Z,55.50
2023-02-09T12:57:16.813Z,55.26
2023-02-09T13:02:39.877Z,54.31
2023-02-09T13:08:13.486Z,55.21
2023-02-09T13:13:22.038Z,53.62
2023-02-09T13:18:35.666Z,54.53
2023-02-09T13:24:14.712Z,55.25
2023-02-09T13:29:21.595Z,55.47
2023-02-09T13:34:46.406Z,56.01
2023-02-09T13:39:57.749Z,56.58
2023-02-09T13:45:00.211Z,56.38
2023-02-09T13:50:14.842Z,54.90
2023-02-09T13:55:24.399Z,55.42
2023-02-09T14:00:29.926Z,54.95
2023-02-09T14:05:41.594Z,54.33
2023-02-09T14:10:48.872Z,54.32
2023-02-09T14:16:08.808Z,55.10
2023-02-09T14:21:11.252Z,54.52
2023-02-09T14:26:24.149Z,54.29
2023-02-09T14:31:27.104Z,53.83
2023-02-09T14:36:35.243Z,52.55
2023-02-09T14:41:37.692Z,53.38
2023-02-09T14:46:52.223Z,53.12
2023-02-09T14:52:14.089Z,55.77
2023-02-09T14:57:17.102Z,55.51
2023-02-09T15:02:23.675Z,54.33
2023-02-09T15:07:38.908Z,53.21
2023-02-09T15:12:41.245Z,53.45
2023-02-09T15:17:43.420Z,53.08
2023-02-09T15:22:45.545Z,52.55
2023-02-09T15:27:58.258Z,54.73
2023-02-09T15:33:01.266Z,56.46
2023-02-09T15:38:03.644Z,55.28
2023-02-09T15:43:38.476Z,55.71
2023-02-09T15:48:40.646Z,55.64
2023-02-09T15:53:43.477Z,57.78
2023-02-09T15:58:47.098Z,56.26
2023-02-09T16:03:49.555Z,56.23
2023-02-09T16:08:53.722Z,56.13
2023-02-09T16:13:56.175Z,55.66
2023-02-09T16:18:58.310Z,56.19
2023-02-09T16:24:05.287Z,55.84
2023-02-09T16:29:11.827Z,54.24
2023-02-09T16:34:15.846Z,52.91
2023-02-09T16:39:20.712Z,51.23
2023-02-09T16:44:25.037Z,52.19
2023-02-09T16:49:35.983Z,51.43
2023-02-09T16:54:43.932Z,52.58
2023-02-09T16:59:46.821Z,53.72
2023-02-09T17:04:48.895Z,53.19
2023-02-09T17:09:51.012Z,53.16
2023-02-09T17:14:53.302Z,52.20
2023-02-09T17:19:56.347Z,53.22
2023-02-09T17:24:58.558Z,52.18
2023-02-09T17:30:00.723Z,51.74
2023-02-09T17:35:02.903Z,51.90
2023-02-09T17:40:05.336Z,54.44
2023-02-09T17:45:22.997Z,55.48
2023-02-09T17:50:26.912Z,55.73
2023-02-09T17:55:31.279Z,55.74
2023-02-09T18:00:33.482Z,57.52
2023-02-09T18:05:40.829Z,56.32
2023-02-09T18:10:43.237Z,57.56
2023-02-09T18:15:46.911Z,58.58
2023-02-09T18:20:49.299Z,58.91
2023-02-09T18:25:51.542Z,57.43
2023-02-09T18:30:54.082Z,56.77
2023-02-09T18:35:56.193Z,55.09
2023-02-09T18:40:58.246Z,56.20
2023-02-09T18:46:01.502Z,54.49
2023-02-09T18:51:08.171Z,53.43
2023-02-09T18:56:21.044Z,52.43
2023-02-09T19:01:24.655Z,54.13
2023-02-09T19:06:26.947Z,54.15
2023-02-09T19:11:29.132Z,53.40
2023-02-09T19:16:31.515Z,54.17
2023-02-09T19:21:33.766Z,53.94
2023-02-09T19:26:35.982Z,55.68
2023-02-09T19:31:38.201Z,55.65
2023-02-09T19:36:40.345Z,54.99
2023-02-09T19:41:44.601Z,55.64
2023-02-09T19:46:46.846Z,54.87
2023-02-09T19:51:49.598Z,53.18
2023-02-09T19:56:52.246Z,51.67
2023-02-09T20:01:54.404Z,50.85
2023-02-09T20:06:56.778Z,51.08
2023-02-09T20:11:59.045Z,51.60
2023-02-09T20:17:01.282Z,51.57
2023-02-09T20:22:03.870Z,51.89
2023-02-09T20:27:08.003Z,51.39
2023-02-09T20:32:11.086Z,51.16
2023-02-09T20:37:13.193Z,51.28
2023-02-09T20:42:33.618Z,51.61
2023-02-09T20:47:35.712Z,50.52
2023-02-09T20:52:39.813Z,50.57
2023-02-09T20:57:42.129Z,50.83
2023-02-09T21:02:44.383Z,51.25
2023-02-09T21:07:52.371Z,50.88
2023-02-09T21:12:54.869Z,50.53
2023-02-09T21:17:57.399Z,49.86
2023-02-09T21:22:59.739Z,49.38
2023-02-09T21:28:02.488Z,49.85
2023-02-09T21:33:04.865Z,49.67
2023-02-09T21:38:07.873Z,49.40
2023-02-09T21:43:10.154Z,49.42
2023-02-09T21:48:12.408Z,48.80
2023-02-09T21:53:14.602Z,48.51
2023-02-09T21:58:16.868Z,48.17
2023-02-09T22:03:19.096Z,48.51
2023-02-09T22:08:21.245Z,48.12
2023-02-09T22:13:23.433Z,47.99
2023-02-09T22:18:25.766Z,48.52
2023-02-09T22:23:27.923Z,48.39
2023-02-09T22:28:30.353Z,48.51
2023-02-09T22:33:32.582Z,48.27
2023-02-09T22:38:35.986Z,48.28
2023-02-09T22:43:38.221Z,48.03
2023-02-09T22:48:40.406Z,47.81
2023-02-09T22:53:42.620Z,48.03
2023-02-09T22:58:44.773Z,47.33
2023-02-09T23:03:46.981Z,47.28
2023-02-09T23:08:53.132Z,47.68
2023-02-09T23:14:11.718Z,47.15
2023-02-09T23:19:17.568Z,47.82
2023-02-09T23:24:22.111Z,47.75
2023-02-09T23:29:24.538Z,47.56
2023-02-09T23:34:26.826Z,47.62
2023-02-09T23:39:29.046Z,49.14
2023-02-09T23:44:31.262Z,48.96
2023-02-09T23:49:33.478Z,49.13
2023-02-09T23:54:35.714Z,49.14
2023-02-09T23:59:37.914Z,49.75
